Venedocia, OH

10:14 PM EDT on August 29, 2015 (GMT -0400)
N1ICS - Ridge Township, OH | | Change Station
CLOSE
Current Station
Personal Weather Station
Location: Van Wert, OH
Elevation: 784 ft
Nearby Weather Stations

Elev 784 ft 40.85 °N, 84.48 °W | Updated 3 minutes ago

Overcast
Overcast
71.4 °F
Feels Like 71.4 °F
N
3.1
Wind Variable Wind from North
Gusts 3.1 mph

Today
High -- | Low -- °F
--% Chance of Precip.
Yesterday
High -- | Low -- °F
Precip. -- in
7:01 AM 8:15 PM
Full, 100% visible
Pressure 30.06 in
Visibility 9.0 miles
Clouds Scattered Clouds 4800 ft
Dew Point 70 °F
Humidity 96%
Rainfall 0.02 in
Snow Depth Not available.
UV 0 out of 12
Pollen 9.30 out of 12
Air Quality Not available.
Flu Activity Not available.
METAR KAOH 300153Z AUTO 00000KT 9SM SCT048 22/20 A3008 RMK AO2 SLP179 T02170200
Pressure 30.06 in
Visibility 9.0 miles
Clouds Scattered Clouds 4800 ft
Dew Point 70 °F
Humidity 96%
Rainfall 0.02 in
Snow Depth Not available.
UV 0 out of 12
Pollen 9.30 out of 12
Air Quality Not available.
Flu Activity Not available.
METAR KAOH 300153Z AUTO 00000KT 9SM SCT048 22/20 A3008 RMK AO2 SLP179 T02170200

10-Day Weather Forecast

×

Almanac

Astronomy

Aug. 29, 2015 Rise Set
Actual Time
Civil Twilight
Nautical Twilight
Astronomical Twilight
Moon
Length of Visible Light
Length of Day
Tomorrow will be .
, % of the Moon is Illuminated

Today's Extremes

State Highs State Lows

Community

WunderPhotos

Upload Photos

1,850,849 photos uploaded!

WunderBlogs® & News

Nearby

Air Quality

  Air Quality AQ Index Pollutant
Not available.

Snow Depth

Station Depth Elevation

Earthquake Activity

City Distance Mag. Time & Date
Minimum magnitude displayed is 2.5.

Coastal Water Temperatures

Place Temperature

Stations

Nearby Weather Stations

Station Location Temp. Windchill Dew Point Humidity Wind Precip. Elev Updated Type